Airfield :
LOGIN :

Register | Disclaimer

   EN    FR    IT 

 










Legend :    VFR   Marginal VFR   IFR   Intensive IFR   Very Intensive IFR
Visi :
Ceiling :
>= 8 km
>= 3000ft
5 to 8 km
1000 to 3000 ft
1500m to 5 km
500 to 1000 ft
800 to 1500m
200 to 500 ft
< 800m
< 200 ft
Symbols :   Thunderstorms  Fog  Heavy snow  Heavy precipitations  Wind > 20 kt
SIGMETs :     Misc.  Thunderstorms  Icing  Turbulence  Mountain Waves  Volcanic Ashes






- Airport Elevation : 36 ft
- IATA code : LTQ


LFAT - Le Touquet

CURRENT METAR :
  • 231700Z AUTO 27013KT 240V300 9999 FEW006 BKN060 BKN086 11/10 Q1020 BECMG 27020G30KT

EXPIRED METARs :
  • 231630Z AUTO 26015G25KT 210V300 9000 OVC006 11/10 Q1020 BECMG BKN025
  • 231600Z AUTO 26016G27KT 230V300 9000 BKN007 OVC012 11/10 Q1019 TEMPO 2000 RADZ BECMG BKN025
  • 231530Z AUTO 27014KT 9999 OVC007 11/10 Q1019 TEMPO 2000 RADZ BECMG 27020G30KT BKN025
  • 231500Z AUTO 27015G27KT 230V310 9000 OVC007 11/10 Q1019 TEMPO 2000 RADZ OVC004
  • 231430Z AUTO 26017KT 230V300 9000 OVC007 12/10 Q1018 TEMPO 24025G45KT 2000 RADZ OVC003

TAF TAF LFAT
Valid from the 23 at 15:00 until the 24 at 00:00 UTC


231400Z 2315/2324 26020G35KT 9999 OVC007
TEMPO 2315/2317 2000 RADZ OVC004
FM231700 27020G30KT 9999 BKN025
BECMG 2319/2321 34005KT
ATIS : +33 3 21 06 62 84



MET'MAP, your aeronautical weather chart ! - Copyright ORBIFLY December 2007 - Disclaimer

ORBIFLY MET'MAP TEAM :

Programming & Development : Alexandra Zaïnal
Concept & original design : Baudouin d'Aumeries
Assistance for programming : Marc-Olivier Méhu
Technical & hardware support : Manuel Goepfert

Contact : metmap@orbifly.com




SOURCES & CREDITS :

   NOAA